Time;durP1;ratioP1;P1;durP2;ratioP2;P2;SDS_P1;SDS_P2;PMS_P1;PMS_P2;Temp;Humidity;BMP_temperature;BMP_pressure;BME280_temperature;BME280_humidity;BME280_pressure;Samples;Min_cycle;Max_cycle;Signal;HPM_P1;HPM_P2
2022/06/21 00:00:20;;;;;;;3.00;2.23;;;19.30;47.70;;;;;;5048701;28;20500;-87
2022/06/21 00:02:48;;;;;;;4.70;2.67;;;19.10;48.20;;;;;;5050260;28;20464;-87
2022/06/21 00:05:23;;;;;;;5.73;3.00;;;18.90;48.90;;;;;;5050401;28;20456;-88
2022/06/21 00:07:50;;;;;;;3.27;2.57;;;18.80;48.80;;;;;;5043684;28;20464;-90
2022/06/21 00:10:19;;;;;;;5.00;2.50;;;18.60;49.40;;;;;;5064176;28;20475;-87
2022/06/21 00:12:46;;;;;;;4.20;2.83;;;18.60;49.40;;;;;;5049922;28;20449;-90
2022/06/21 00:15:13;;;;;;;4.40;2.87;;;18.70;49.20;;;;;;5038250;28;20536;-88
2022/06/21 00:17:42;;;;;;;2.50;2.30;;;18.70;48.90;;;;;;5047442;28;20453;-87
2022/06/21 00:20:13;;;;;;;4.10;2.60;;;18.70;49.10;;;;;;5031203;28;20464;-86
2022/06/21 00:22:42;;;;;;;2.77;2.57;;;18.80;49.00;;;;;;5050006;28;20468;-87
2022/06/21 00:25:16;;;;;;;3.23;2.70;;;18.80;49.00;;;;;;5049252;28;20467;-89
2022/06/21 00:27:43;;;;;;;3.03;2.70;;;18.80;49.00;;;;;;5052784;28;20467;-89
2022/06/21 00:30:12;;;;;;;3.57;2.60;;;18.80;49.00;;;;;;5032737;28;20477;-86
2022/06/21 00:32:39;;;;;;;3.70;2.40;;;18.80;48.80;;;;;;5049580;28;21059;-86
2022/06/21 00:35:11;;;;;;;4.03;2.57;;;18.80;48.80;;;;;;5045015;28;20831;-88
2022/06/21 00:37:39;;;;;;;3.07;2.67;;;18.80;49.10;;;;;;5059225;28;20573;-89
2022/06/21 00:40:21;;;;;;;4.13;2.67;;;18.80;49.20;;;;;;5032680;28;20475;-86
2022/06/21 00:42:53;;;;;;;2.77;2.57;;;18.80;48.70;;;;;;5049089;28;20457;-87
2022/06/21 00:45:30;;;;;;;2.70;2.50;;;18.80;48.30;;;;;;5055749;28;20463;-88
2022/06/21 00:48:00;;;;;;;3.90;2.00;;;18.80;48.40;;;;;;5048824;28;20498;-86
2022/06/21 00:50:31;;;;;;;2.90;2.03;;;18.70;48.80;;;;;;5050377;28;20473;-86
2022/06/21 00:53:07;;;;;;;2.33;2.20;;;18.60;49.20;;;;;;5050344;28;20462;-88
2022/06/21 00:55:41;;;;;;;3.20;2.47;;;18.60;49.30;;;;;;5049202;28;20455;-86
2022/06/21 00:58:12;;;;;;;3.27;2.97;;;18.60;49.50;;;;;;5048625;28;20560;-88
2022/06/21 01:00:53;;;;;;;3.13;2.90;;;18.60;49.80;;;;;;5047697;28;20449;-86
2022/06/21 01:03:22;;;;;;;3.37;3.07;;;18.60;49.50;;;;;;5064431;28;21285;-88
2022/06/21 01:05:51;;;;;;;3.13;2.83;;;18.60;49.80;;;;;;5047129;28;21000;-89
2022/06/21 01:08:22;;;;;;;3.17;2.87;;;18.50;49.70;;;;;;5046944;28;20483;-88
2022/06/21 01:10:54;;;;;;;3.00;2.70;;;18.50;49.70;;;;;;5045210;28;20695;-86
2022/06/21 01:13:27;;;;;;;2.83;2.63;;;18.50;49.90;;;;;;5033161;28;21159;-87
2022/06/21 01:15:56;;;;;;;3.37;3.07;;;18.50;49.80;;;;;;5048031;28;20445;-87
2022/06/21 01:18:25;;;;;;;4.03;2.60;;;18.50;49.70;;;;;;5048365;28;20448;-86
2022/06/21 01:20:55;;;;;;;2.70;2.50;;;18.50;49.30;;;;;;5047459;28;20875;-87
2022/06/21 01:23:43;;;;;;;3.10;2.80;;;18.40;49.20;;;;;;5064335;28;20465;-88
2022/06/21 01:26:36;;;;;;;4.20;2.83;;;18.40;49.40;;;;;;5062018;28;20449;-86
2022/06/21 01:29:05;;;;;;;3.53;2.50;;;18.30;49.10;;;;;;5055347;28;20476;-89
2022/06/21 01:31:33;;;;;;;3.90;2.77;;;18.20;49.40;;;;;;5047683;28;20457;-88
2022/06/21 01:34:00;;;;;;;3.90;2.60;;;18.10;49.50;;;;;;5032638;28;20437;-86
2022/06/21 01:36:30;;;;;;;4.07;2.60;;;18.20;49.20;;;;;;5064425;28;20633;-88
2022/06/21 01:39:01;;;;;;;2.93;2.30;;;18.20;49.00;;;;;;5044241;28;20472;-87
2022/06/21 01:41:34;;;;;;;2.83;2.57;;;18.20;48.90;;;;;;5064348;28;21218;-87
2022/06/21 01:44:07;;;;;;;3.17;2.87;;;18.10;48.90;;;;;;5048521;28;20441;-86
2022/06/21 01:46:34;;;;;;;6.70;2.93;;;18.10;49.40;;;;;;5048099;28;20473;-86
2022/06/21 01:49:06;;;;;;;4.30;3.03;;;18.10;49.30;;;;;;5048158;28;20476;-89
2022/06/21 01:51:35;;;;;;;3.67;3.37;;;18.10;49.10;;;;;;5048331;28;20449;-89
2022/06/21 01:54:06;;;;;;;3.13;2.80;;;18.10;48.70;;;;;;5037601;28;20472;-89
2022/06/21 01:56:40;;;;;;;3.13;2.90;;;18.10;49.30;;;;;;5049343;28;20452;-86
2022/06/21 01:59:13;;;;;;;3.20;2.67;;;18.10;48.60;;;;;;5054513;28;20547;-86
2022/06/21 02:01:45;;;;;;;5.63;2.60;;;18.00;48.50;;;;;;5048270;28;20984;-86
2022/06/21 02:04:16;;;;;;;3.97;3.00;;;18.00;48.50;;;;;;5047376;28;20552;-88
2022/06/21 02:06:46;;;;;;;3.10;2.87;;;18.00;48.70;;;;;;5045870;28;20806;-87
2022/06/21 02:09:20;;;;;;;3.30;2.80;;;18.00;48.60;;;;;;5046858;28;20473;-86
2022/06/21 02:11:52;;;;;;;3.33;3.03;;;18.00;48.30;;;;;;5048649;28;20443;-86
2022/06/21 02:14:30;;;;;;;3.93;3.00;;;17.90;48.80;;;;;;5055054;28;20457;-87
2022/06/21 02:17:05;;;;;;;2.83;2.30;;;17.80;49.40;;;;;;5038315;28;20435;-86
2022/06/21 02:19:39;;;;;;;4.80;3.00;;;17.80;49.70;;;;;;5050474;28;20972;-88
2022/06/21 02:22:10;;;;;;;3.43;3.07;;;17.80;49.70;;;;;;5047217;28;21418;-88
2022/06/21 02:24:37;;;;;;;2.90;2.70;;;17.80;49.30;;;;;;5047624;28;20718;-87
2022/06/21 02:27:06;;;;;;;3.03;2.83;;;17.80;49.30;;;;;;5038293;28;20734;-86
2022/06/21 02:29:34;;;;;;;3.87;2.60;;;17.80;49.10;;;;;;5047482;28;20469;-87
2022/06/21 02:32:05;;;;;;;3.03;2.77;;;17.70;48.80;;;;;;5062809;28;20810;-86
2022/06/21 02:34:36;;;;;;;3.43;3.13;;;17.70;49.00;;;;;;5052745;28;20453;-86
2022/06/21 02:37:05;;;;;;;4.53;3.07;;;17.70;49.20;;;;;;5043853;28;20454;-88
2022/06/21 02:39:36;;;;;;;4.30;3.50;;;17.60;49.60;;;;;;5044948;28;20481;-86
2022/06/21 02:42:10;;;;;;;2.97;2.77;;;17.40;50.00;;;;;;5046918;28;20450;-89
2022/06/21 02:44:40;;;;;;;3.77;2.90;;;17.40;49.60;;;;;;5045357;28;20441;-86
2022/06/21 02:47:13;;;;;;;3.57;3.27;;;17.40;49.30;;;;;;5046345;28;20591;-88
2022/06/21 02:49:44;;;;;;;3.07;2.87;;;17.30;49.40;;;;;;5047074;28;21050;-89
2022/06/21 02:52:17;;;;;;;3.70;3.37;;;17.20;49.70;;;;;;5050222;28;20453;-86
2022/06/21 02:54:50;;;;;;;3.17;2.40;;;17.20;49.90;;;;;;5048137;28;20450;-87
2022/06/21 02:57:24;;;;;;;3.00;2.70;;;17.20;50.00;;;;;;5033384;28;20460;-86
2022/06/21 02:59:54;;;;;;;3.27;2.97;;;17.30;49.70;;;;;;5046962;28;20480;-86
2022/06/21 03:02:24;;;;;;;2.70;2.50;;;17.30;49.40;;;;;;5045846;28;20473;-87
2022/06/21 03:04:53;;;;;;;3.10;2.80;;;17.30;49.20;;;;;;5048209;28;21251;-89
2022/06/21 03:07:23;;;;;;;2.60;2.40;;;17.30;48.90;;;;;;5045858;28;21039;-87
2022/06/21 03:09:51;;;;;;;4.70;3.37;;;17.30;49.20;;;;;;5054864;28;20559;-87
2022/06/21 03:12:23;;;;;;;3.00;2.80;;;17.20;49.90;;;;;;5061608;28;20458;-86
2022/06/21 03:14:51;;;;;;;5.00;3.83;;;17.20;50.20;;;;;;5045488;28;20473;-88
2022/06/21 03:17:23;;;;;;;3.10;2.90;;;17.20;50.40;;;;;;5048249;28;21054;-86
2022/06/21 03:19:52;;;;;;;3.23;2.87;;;17.20;50.60;;;;;;5052120;28;20473;-88
2022/06/21 03:22:24;;;;;;;3.40;3.20;;;17.30;50.10;;;;;;5053136;28;20459;-87
2022/06/21 03:24:55;;;;;;;4.33;3.60;;;17.20;50.40;;;;;;5049764;28;20453;-86
2022/06/21 03:27:31;;;;;;;3.23;3.00;;;17.20;50.40;;;;;;5049803;28;20487;-89
2022/06/21 03:29:59;;;;;;;3.83;3.50;;;16.90;50.40;;;;;;5050557;28;20728;-87
2022/06/21 03:32:30;;;;;;;7.00;3.90;;;16.50;51.70;;;;;;5051011;28;20449;-86
2022/06/21 03:34:57;;;;;;;4.80;4.30;;;16.50;52.00;;;;;;5052156;28;20448;-86
2022/06/21 03:37:24;;;;;;;5.13;4.63;;;16.70;52.90;;;;;;5047743;28;20529;-88
2022/06/21 03:42:44;;;;;;;5.80;5.20;;;17.00;53.00;;;;;;5054518;28;20550;-86
2022/06/21 03:45:16;;;;;;;4.27;3.87;;;17.10;53.00;;;;;;5049202;28;20452;-88
2022/06/21 03:47:48;;;;;;;11.10;4.97;;;17.10;53.00;;;;;;5063707;28;20470;-86
2022/06/21 03:50:20;;;;;;;6.50;4.10;;;17.10;52.60;;;;;;5053211;28;20511;-87
2022/06/21 03:52:54;;;;;;;4.40;4.00;;;17.10;52.00;;;;;;5050415;28;20456;-89
2022/06/21 03:55:34;;;;;;;5.33;4.40;;;17.10;51.90;;;;;;5050153;28;20456;-87
2022/06/21 03:58:07;;;;;;;6.10;3.70;;;17.10;51.80;;;;;;5057801;28;20449;-85
2022/06/21 04:00:46;;;;;;;8.50;3.70;;;17.10;52.10;;;;;;5051432;28;20853;-86
2022/06/21 04:03:21;;;;;;;4.60;4.10;;;17.20;52.00;;;;;;5052582;28;20437;-86
2022/06/21 04:05:55;;;;;;;5.03;4.50;;;17.20;51.80;;;;;;5040817;28;20460;-86
2022/06/21 04:08:28;;;;;;;6.03;4.50;;;17.00;51.90;;;;;;5048716;28;21331;-89
2022/06/21 04:11:00;;;;;;;6.03;4.70;;;17.00;52.20;;;;;;5050113;28;20781;-86
2022/06/21 04:13:35;;;;;;;5.90;4.23;;;17.10;52.60;;;;;;5049891;28;20848;-87
2022/06/21 04:16:09;;;;;;;5.00;4.50;;;17.00;52.40;;;;;;5048843;28;20499;-88
2022/06/21 04:18:44;;;;;;;6.80;5.10;;;17.00;52.70;;;;;;5052207;28;21347;-89
2022/06/21 04:21:16;;;;;;;6.87;6.03;;;17.20;52.70;;;;;;5055445;28;20445;-87
2022/06/21 04:23:49;;;;;;;9.43;6.20;;;17.20;52.60;;;;;;5058005;28;20445;-85
2022/06/21 04:26:21;;;;;;;6.63;5.97;;;17.10;53.00;;;;;;5048868;28;20454;-84
2022/06/21 04:28:55;;;;;;;7.93;5.87;;;17.10;52.90;;;;;;5057561;28;20483;-85
2022/06/21 04:31:28;;;;;;;7.70;5.53;;;17.20;52.70;;;;;;5049408;28;20456;-86
2022/06/21 04:34:00;;;;;;;5.07;4.57;;;17.30;52.60;;;;;;5053616;28;20455;-87
2022/06/21 04:36:35;;;;;;;5.00;4.53;;;17.40;52.50;;;;;;5050233;28;20916;-89
2022/06/21 04:39:07;;;;;;;5.00;4.50;;;17.40;52.30;;;;;;5049548;28;20519;-87
2022/06/21 04:41:41;;;;;;;5.40;4.90;;;17.40;52.40;;;;;;5043049;28;20477;-85
2022/06/21 04:44:15;;;;;;;7.33;5.10;;;17.20;52.90;;;;;;5035770;28;20468;-85
2022/06/21 04:46:47;;;;;;;5.80;5.30;;;17.20;53.00;;;;;;5046537;28;20441;-85
2022/06/21 04:49:19;;;;;;;6.13;5.00;;;16.80;54.00;;;;;;5052305;28;20511;-88
2022/06/21 04:51:52;;;;;;;5.80;5.13;;;17.00;54.10;;;;;;5053087;28;20461;-85
2022/06/21 04:54:24;;;;;;;6.10;5.30;;;17.00;54.20;;;;;;5028574;28;20473;-85
2022/06/21 04:56:59;;;;;;;9.60;5.73;;;17.00;54.20;;;;;;5053470;28;20488;-88
2022/06/21 04:59:30;;;;;;;5.97;5.40;;;17.00;53.90;;;;;;5043034;28;20465;-86
2022/06/21 05:01:58;;;;;;;7.00;5.70;;;17.00;54.20;;;;;;5042822;28;20467;-86
2022/06/21 05:04:28;;;;;;;8.40;5.93;;;17.10;54.20;;;;;;5027450;28;20503;-86
2022/06/21 05:06:58;;;;;;;6.30;5.20;;;17.20;54.20;;;;;;5057003;28;20452;-88
2022/06/21 05:09:29;;;;;;;6.70;5.50;;;17.30;53.40;;;;;;5044464;28;20514;-86
2022/06/21 05:11:58;;;;;;;6.20;4.80;;;17.20;53.30;;;;;;5044639;28;21039;-87
2022/06/21 05:14:30;;;;;;;5.70;5.20;;;17.40;53.50;;;;;;5046666;28;20547;-87
2022/06/21 05:16:58;;;;;;;6.10;4.70;;;17.10;53.40;;;;;;5034132;28;20454;-85
2022/06/21 05:19:30;;;;;;;5.70;5.10;;;17.20;53.70;;;;;;5028384;28;20465;-87
2022/06/21 05:22:00;;;;;;;7.60;5.30;;;17.40;53.40;;;;;;5044836;28;20461;-85
2022/06/21 05:24:28;;;;;;;5.30;4.80;;;17.50;53.10;;;;;;5045961;28;20544;-87
2022/06/21 05:27:02;;;;;;;5.60;4.63;;;17.50;53.00;;;;;;5059391;28;20587;-86
2022/06/21 05:29:36;;;;;;;5.30;4.80;;;17.30;53.50;;;;;;5043074;28;20492;-85
2022/06/21 05:32:06;;;;;;;6.60;5.27;;;17.30;53.70;;;;;;5043004;28;20450;-87
2022/06/21 05:34:38;;;;;;;9.73;4.73;;;17.50;53.30;;;;;;5046725;28;20453;-85
2022/06/21 05:37:20;;;;;;;5.40;4.83;;;17.40;53.20;;;;;;5044780;28;21415;-84
2022/06/21 05:39:51;;;;;;;7.93;5.00;;;17.60;53.40;;;;;;5042968;28;20472;-84
2022/06/21 05:42:21;;;;;;;7.43;5.23;;;17.80;53.20;;;;;;5032497;28;20813;-86
2022/06/21 05:44:52;;;;;;;5.90;5.40;;;17.80;53.20;;;;;;5050891;28;20691;-86
2022/06/21 05:47:24;;;;;;;11.30;7.10;;;17.80;52.90;;;;;;5027830;28;20464;-86
2022/06/21 05:49:53;;;;;;;6.60;5.67;;;17.60;53.30;;;;;;5041777;28;20496;-86
2022/06/21 05:52:26;;;;;;;6.50;5.80;;;17.30;54.10;;;;;;5025873;28;20517;-86
2022/06/21 05:54:59;;;;;;;6.83;5.47;;;17.40;54.40;;;;;;5041065;28;20512;-86
2022/06/21 05:57:34;;;;;;;6.10;5.40;;;17.40;54.10;;;;;;5046160;28;21046;-85
2022/06/21 06:00:05;;;;;;;6.70;5.80;;;17.10;54.80;;;;;;5040677;28;21121;-88
2022/06/21 06:02:37;;;;;;;6.23;5.60;;;17.30;55.00;;;;;;5042385;28;20445;-87
2022/06/21 06:05:11;;;;;;;8.90;4.43;;;17.60;54.40;;;;;;5032653;28;20456;-85
2022/06/21 06:07:43;;;;;;;5.90;5.30;;;18.00;53.80;;;;;;5034054;28;20953;-87
2022/06/21 06:10:11;;;;;;;5.27;4.77;;;18.20;53.00;;;;;;5032896;28;20504;-86
2022/06/21 06:12:41;;;;;;;5.60;5.10;;;18.30;52.90;;;;;;5043870;28;20648;-86
2022/06/21 06:15:15;;;;;;;5.53;5.03;;;18.70;52.50;;;;;;5039454;28;21490;-87
2022/06/21 06:17:48;;;;;;;5.60;5.10;;;18.80;51.90;;;;;;5042684;28;20452;-85
2022/06/21 06:20:23;;;;;;;5.47;4.53;;;18.70;51.70;;;;;;5043487;28;20477;-86
2022/06/21 06:22:56;;;;;;;6.30;4.60;;;18.60;52.50;;;;;;5040074;28;20453;-86
2022/06/21 06:25:29;;;;;;;7.07;5.43;;;18.50;52.90;;;;;;5040964;28;20571;-86
2022/06/21 06:28:03;;;;;;;6.27;4.90;;;18.60;52.70;;;;;;5041310;28;20464;-85
2022/06/21 06:30:35;;;;;;;6.20;5.03;;;18.60;52.80;;;;;;5044379;28;20473;-85
2022/06/21 06:33:15;;;;;;;6.70;5.37;;;18.70;53.00;;;;;;5042357;28;20880;-87
2022/06/21 06:35:43;;;;;;;9.40;4.63;;;18.90;52.40;;;;;;5041685;28;20475;-85
2022/06/21 06:38:14;;;;;;;6.87;4.43;;;19.00;52.30;;;;;;5043999;28;20449;-84
2022/06/21 06:40:44;;;;;;;5.57;5.07;;;19.20;52.20;;;;;;5028885;28;20473;-85
2022/06/21 06:43:15;;;;;;;4.70;4.30;;;19.50;52.40;;;;;;5044264;28;20453;-87
2022/06/21 06:45:45;;;;;;;7.93;4.30;;;19.70;51.60;;;;;;5040842;28;20440;-84
2022/06/21 06:48:19;;;;;;;4.60;4.20;;;19.90;50.70;;;;;;5042913;28;20819;-84
2022/06/21 06:50:49;;;;;;;13.03;4.70;;;20.10;50.70;;;;;;5043203;28;20567;-87
2022/06/21 06:53:23;;;;;;;9.40;4.13;;;20.20;50.40;;;;;;5042556;28;20460;-85
2022/06/21 06:55:55;;;;;;;4.10;3.40;;;20.40;49.90;;;;;;5057481;28;20475;-86
2022/06/21 06:58:25;;;;;;;3.87;3.47;;;20.50;49.60;;;;;;5041641;28;20457;-86
2022/06/21 07:00:56;;;;;;;6.57;3.73;;;20.70;49.80;;;;;;5040647;28;20465;-85
2022/06/21 07:03:28;;;;;;;3.90;3.47;;;20.70;49.50;;;;;;5043942;28;20436;-85
2022/06/21 07:05:59;;;;;;;8.47;3.70;;;20.80;49.40;;;;;;5044659;28;20456;-88
2022/06/21 07:08:33;;;;;;;4.60;3.80;;;20.90;49.80;;;;;;5046799;28;21011;-87
2022/06/21 07:11:04;;;;;;;4.80;3.80;;;21.10;49.40;;;;;;5044270;28;20455;-88
2022/06/21 07:13:33;;;;;;;13.13;4.30;;;21.40;49.10;;;;;;5045801;28;20461;-88
2022/06/21 07:16:07;;;;;;;8.47;4.80;;;21.70;48.60;;;;;;5044549;28;20996;-85
2022/06/21 07:18:43;;;;;;;12.20;4.27;;;21.90;48.40;;;;;;5048085;28;22335;-88
2022/06/21 07:21:10;;;;;;;4.07;3.67;;;21.70;48.50;;;;;;5042780;28;20499;-87
2022/06/21 07:23:38;;;;;;;5.57;3.80;;;21.70;48.60;;;;;;5044690;28;20456;-89
2022/06/21 07:26:11;;;;;;;4.00;3.40;;;21.90;48.90;;;;;;5050925;28;20593;-86
2022/06/21 07:28:42;;;;;;;3.87;3.53;;;22.00;48.50;;;;;;5047185;28;20858;-87
2022/06/21 07:31:15;;;;;;;4.60;3.90;;;22.10;48.00;;;;;;5027640;28;20449;-85
2022/06/21 07:33:46;;;;;;;5.40;4.90;;;21.90;48.60;;;;;;5045601;28;20891;-88
2022/06/21 07:36:18;;;;;;;7.20;3.63;;;21.70;48.70;;;;;;5052948;28;21130;-85
2022/06/21 07:38:51;;;;;;;6.40;3.63;;;21.70;49.10;;;;;;5045427;28;20462;-86
2022/06/21 07:41:21;;;;;;;4.17;3.63;;;22.00;48.40;;;;;;5044524;28;20449;-86
2022/06/21 07:43:51;;;;;;;3.40;3.10;;;22.30;48.30;;;;;;5047022;28;20509;-83
2022/06/21 07:46:25;;;;;;;4.00;3.70;;;22.40;47.80;;;;;;5043978;28;20974;-85
2022/06/21 07:48:56;;;;;;;3.80;3.50;;;22.60;47.80;;;;;;5046706;28;20476;-85
2022/06/21 07:51:27;;;;;;;6.60;4.00;;;22.70;47.10;;;;;;5044604;28;20456;-86
2022/06/21 07:54:02;;;;;;;7.17;3.80;;;22.90;47.10;;;;;;5044659;28;20445;-88
2022/06/21 07:56:35;;;;;;;4.07;3.40;;;22.80;45.60;;;;;;5046019;28;20458;-85
2022/06/21 07:59:05;;;;;;;9.33;3.37;;;23.00;45.40;;;;;;5026839;28;21029;-87
2022/06/21 08:07:16;;;;;;;7.57;4.03;;;23.70;42.20;;;;;;5054053;28;20483;-87
2022/06/21 08:09:48;;;;;;;4.63;3.97;;;23.70;41.00;;;;;;5050660;28;20472;-86
2022/06/21 08:12:17;;;;;;;3.73;3.30;;;23.90;40.80;;;;;;5027863;28;20988;-87
2022/06/21 08:14:44;;;;;;;9.77;3.03;;;24.10;40.70;;;;;;5052315;28;20449;-84
2022/06/21 08:17:22;;;;;;;4.60;3.17;;;24.20;40.10;;;;;;5046880;28;20457;-84
2022/06/21 08:19:56;;;;;;;4.10;2.50;;;24.40;39.70;;;;;;5047736;28;21007;-85
2022/06/21 08:22:28;;;;;;;4.40;2.10;;;24.30;38.00;;;;;;5038668;28;20441;-86
2022/06/21 08:24:58;;;;;;;3.50;3.20;;;24.40;39.40;;;;;;5046157;28;20456;-86
2022/06/21 08:27:35;;;;;;;4.70;2.60;;;24.50;38.90;;;;;;5037060;28;20535;-86
2022/06/21 08:30:10;;;;;;;3.43;3.10;;;24.80;39.10;;;;;;5034977;28;20473;-85
2022/06/21 08:32:48;;;;;;;4.53;2.80;;;24.50;38.70;;;;;;5046901;28;20463;-86
2022/06/21 08:35:21;;;;;;;5.07;3.50;;;24.20;39.60;;;;;;5046258;28;21023;-87
2022/06/21 08:37:53;;;;;;;3.77;3.33;;;24.50;39.10;;;;;;5033909;28;20837;-84
2022/06/21 08:40:39;;;;;;;4.20;3.10;;;24.50;38.70;;;;;;5059175;28;20476;-84
2022/06/21 08:43:38;;;;;;;6.07;2.60;;;24.60;38.00;;;;;;5044802;28;20481;-86
2022/06/21 08:46:44;;;;;;;3.87;3.20;;;24.90;37.90;;;;;;5044446;28;20952;-84
2022/06/21 08:49:32;;;;;;;2.73;2.30;;;25.40;38.00;;;;;;5049180;28;20519;-88
2022/06/21 08:52:47;;;;;;;5.03;3.03;;;25.50;36.80;;;;;;5056308;28;20932;-88
2022/06/21 08:55:23;;;;;;;3.60;2.93;;;25.50;35.70;;;;;;5036236;28;20965;-87
2022/06/21 08:58:03;;;;;;;4.33;2.70;;;25.20;36.60;;;;;;5049194;28;20475;-86
2022/06/21 09:00:36;;;;;;;9.20;2.77;;;25.10;36.80;;;;;;5051384;28;20476;-85
2022/06/21 09:03:20;;;;;;;5.10;2.63;;;25.30;36.00;;;;;;5050191;28;21255;-89
2022/06/21 09:06:03;;;;;;;7.67;3.10;;;25.70;35.40;;;;;;5047085;28;20826;-88
2022/06/21 09:08:46;;;;;;;6.37;2.80;;;25.60;34.50;;;;;;5047291;28;20453;-87
2022/06/21 09:11:30;;;;;;;5.17;2.60;;;25.70;34.80;;;;;;5045128;28;20590;-87
2022/06/21 09:14:24;;;;;;;3.03;2.60;;;25.90;35.40;;;;;;5040396;28;20464;-85
2022/06/21 09:16:56;;;;;;;8.07;2.90;;;26.30;35.50;;;;;;5050553;28;20453;-85
2022/06/21 09:19:35;;;;;;;2.87;2.57;;;26.60;34.20;;;;;;5048678;28;20464;-90
2022/06/21 09:22:13;;;;;;;7.40;3.27;;;26.60;33.40;;;;;;5049640;28;20460;-85
2022/06/21 09:24:46;;;;;;;5.20;2.73;;;26.60;33.40;;;;;;5048013;28;20453;-85
2022/06/21 09:27:19;;;;;;;3.90;3.13;;;26.80;35.30;;;;;;5046067;28;20461;-86
2022/06/21 09:30:00;;;;;;;4.67;2.63;;;26.90;32.50;;;;;;5043894;28;21064;-85
2022/06/21 09:32:35;;;;;;;2.53;2.30;;;27.00;33.70;;;;;;5055023;28;20482;-87
2022/06/21 09:35:15;;;;;;;4.07;2.53;;;27.20;32.90;;;;;;5047279;28;21042;-86
2022/06/21 09:37:56;;;;;;;4.87;3.10;;;27.00;32.30;;;;;;5044919;28;20453;-85
2022/06/21 09:40:29;;;;;;;2.67;2.47;;;27.20;32.80;;;;;;5052402;28;20464;-88
2022/06/21 09:43:04;;;;;;;3.90;2.47;;;27.30;33.20;;;;;;5046810;28;20453;-84
2022/06/21 09:45:36;;;;;;;3.50;2.53;;;27.60;32.50;;;;;;5043769;28;20588;-85
2022/06/21 09:48:10;;;;;;;4.80;2.83;;;27.40;31.70;;;;;;5046680;28;20449;-88
2022/06/21 09:50:47;;;;;;;2.43;2.20;;;27.40;32.00;;;;;;5036244;28;20469;-88
2022/06/21 09:53:22;;;;;;;4.37;2.70;;;27.70;32.00;;;;;;5044248;28;20453;-86
2022/06/21 09:55:57;;;;;;;5.60;2.63;;;27.80;30.20;;;;;;5037224;28;20873;-89
2022/06/21 09:58:29;;;;;;;5.43;2.53;;;27.60;31.00;;;;;;5044374;28;20453;-87
2022/06/21 10:01:02;;;;;;;5.97;2.80;;;27.50;30.60;;;;;;5042343;28;20467;-89
2022/06/21 10:03:42;;;;;;;7.50;2.73;;;27.40;30.60;;;;;;5043957;28;20445;-84
2022/06/21 10:06:15;;;;;;;4.10;2.30;;;27.80;30.50;;;;;;5043861;28;20539;-84
2022/06/21 10:09:12;;;;;;;5.43;2.57;;;27.90;31.80;;;;;;5051792;28;20476;-88
2022/06/21 10:11:51;;;;;;;3.53;3.00;;;28.00;30.50;;;;;;5060361;28;20515;-88
2022/06/21 10:14:42;;;;;;;7.10;2.00;;;28.40;30.30;;;;;;5034036;28;21207;-88
2022/06/21 10:17:31;;;;;;;3.10;2.37;;;28.50;29.50;;;;;;5045967;28;20848;-86
2022/06/21 10:20:14;;;;;;;2.10;1.90;;;28.60;29.90;;;;;;5050265;28;20473;-87
2022/06/21 10:22:53;;;;;;;2.80;2.00;;;28.80;29.80;;;;;;5043713;28;20551;-85
2022/06/21 10:25:44;;;;;;;2.63;2.43;;;28.90;28.80;;;;;;5042995;28;20460;-86
2022/06/21 10:28:42;;;;;;;2.40;2.20;;;29.30;28.80;;;;;;5041864;28;20452;-86
2022/06/21 10:31:24;;;;;;;3.27;2.20;;;29.30;28.30;;;;;;5039565;28;21079;-85
2022/06/21 10:34:19;;;;;;;2.33;1.80;;;29.10;27.60;;;;;;5045459;28;20452;-85
2022/06/21 10:37:02;;;;;;;3.13;1.77;;;29.40;28.40;;;;;;5039391;28;20461;-83
2022/06/21 10:39:43;;;;;;;2.60;1.83;;;29.40;27.50;;;;;;5043319;28;20902;-88
2022/06/21 10:45:36;;;;;;;6.30;2.23;;;29.10;28.10;;;;;;5040825;28;20448;-87
2022/06/21 10:48:19;;;;;;;5.47;2.00;;;29.50;26.10;;;;;;5047598;28;20437;-87
2022/06/21 10:50:55;;;;;;;4.07;2.00;;;29.50;26.10;;;;;;5041027;28;20491;-87
2022/06/21 10:53:47;;;;;;;4.57;1.77;;;29.30;27.30;;;;;;5058373;28;20459;-86
2022/06/21 10:59:23;;;;;;;1.93;1.67;;;29.50;26.50;;;;;;5042754;28;20472;-87
2022/06/21 11:01:55;;;;;;;3.70;1.73;;;29.70;25.60;;;;;;5051564;28;20480;-87
2022/06/21 11:04:51;;;;;;;2.37;1.90;;;29.90;26.30;;;;;;5051933;28;20433;-85
2022/06/21 11:07:27;;;;;;;3.10;1.90;;;30.00;26.20;;;;;;5043208;28;20451;-83
2022/06/21 11:10:02;;;;;;;1.80;1.70;;;30.00;27.10;;;;;;5045886;28;20488;-84
2022/06/21 11:13:03;;;;;;;5.97;2.57;;;30.10;26.80;;;;;;5047250;28;20456;-82
2022/06/21 11:15:43;;;;;;;2.10;1.90;;;30.20;26.60;;;;;;5045162;28;20955;-84
2022/06/21 11:18:23;;;;;;;2.10;1.90;;;30.40;26.70;;;;;;5032061;28;20486;-83
2022/06/21 11:21:01;;;;;;;2.70;1.83;;;30.40;25.80;;;;;;5046105;28;21026;-84
2022/06/21 11:23:42;;;;;;;1.90;1.70;;;29.90;26.60;;;;;;5038297;28;20532;-83
2022/06/21 11:26:19;;;;;;;2.80;1.70;;;30.10;26.00;;;;;;5043936;28;20460;-86
2022/06/21 11:28:57;;;;;;;1.87;1.63;;;30.10;25.90;;;;;;5039130;28;20477;-87
2022/06/21 11:31:34;;;;;;;3.30;2.10;;;30.30;26.40;;;;;;5043222;28;20702;-86
2022/06/21 11:34:10;;;;;;;3.03;2.10;;;30.40;26.00;;;;;;5050330;28;20956;-83
2022/06/21 11:36:47;;;;;;;2.03;1.83;;;30.50;26.00;;;;;;5048217;28;20457;-86
2022/06/21 11:39:27;;;;;;;3.10;1.73;;;30.60;26.40;;;;;;5044672;28;20468;-83
2022/06/21 11:42:18;;;;;;;2.67;2.03;;;30.40;26.80;;;;;;5033944;28;20468;-84
2022/06/21 11:45:25;;;;;;;4.40;2.23;;;30.70;26.20;;;;;;5046589;28;20445;-86
2022/06/21 11:48:23;;;;;;;3.03;2.03;;;30.80;26.10;;;;;;5046461;28;20448;-86
2022/06/21 11:51:01;;;;;;;2.10;2.00;;;30.80;26.10;;;;;;5042753;28;21284;-82
2022/06/21 11:53:52;;;;;;;2.40;2.20;;;31.00;25.80;;;;;;5047945;28;20445;-83
2022/06/21 11:56:26;;;;;;;3.40;2.10;;;30.70;25.10;;;;;;5047022;28;20464;-86
2022/06/21 11:59:00;;;;;;;6.10;1.80;;;30.20;25.50;;;;;;5046787;28;21209;-84
2022/06/21 12:01:34;;;;;;;2.27;1.93;;;30.30;26.30;;;;;;5038934;28;20459;-85
2022/06/21 12:04:20;;;;;;;3.93;2.10;;;30.50;26.00;;;;;;5042766;28;20452;-83
2022/06/21 12:06:55;;;;;;;2.37;2.17;;;30.90;26.70;;;;;;5047912;28;20445;-85
2022/06/21 12:09:28;;;;;;;4.97;2.20;;;30.90;25.00;;;;;;5046935;28;20947;-86
2022/06/21 12:12:10;;;;;;;2.23;2.03;;;31.20;25.00;;;;;;5047705;28;21201;-86
2022/06/21 12:14:54;;;;;;;2.00;1.90;;;31.40;25.10;;;;;;5057303;28;20457;-86
2022/06/21 12:17:22;;;;;;;2.27;2.07;;;31.00;24.80;;;;;;5050560;28;20453;-86
2022/06/21 12:19:55;;;;;;;1.90;1.80;;;30.80;25.00;;;;;;5049225;28;20473;-82
2022/06/21 12:22:27;;;;;;;5.00;1.90;;;30.90;26.20;;;;;;5049861;28;20441;-83
2022/06/21 12:24:54;;;;;;;1.90;1.80;;;31.20;24.90;;;;;;5045094;28;20457;-85
2022/06/21 12:27:21;;;;;;;2.03;1.87;;;31.60;24.30;;;;;;5049023;28;20465;-83
2022/06/21 12:29:49;;;;;;;4.53;1.80;;;31.50;24.10;;;;;;5055336;28;20473;-84
2022/06/21 12:32:20;;;;;;;2.17;2.07;;;31.20;23.60;;;;;;5046490;28;20452;-85
2022/06/21 12:35:01;;;;;;;2.33;2.00;;;31.00;24.50;;;;;;5047390;28;20456;-84
2022/06/21 12:37:35;;;;;;;2.80;1.83;;;30.90;24.40;;;;;;5058211;28;20476;-84
2022/06/21 12:40:11;;;;;;;2.37;1.80;;;30.70;24.50;;;;;;5062797;28;20476;-84
2022/06/21 12:42:49;;;;;;;2.40;2.00;;;30.50;25.10;;;;;;5047982;28;20448;-86
2022/06/21 12:45:30;;;;;;;1.70;1.60;;;30.50;25.50;;;;;;5047662;28;20452;-87
2022/06/21 12:48:14;;;;;;;1.80;1.70;;;30.70;25.80;;;;;;5065030;28;20457;-83
2022/06/21 12:50:52;;;;;;;2.87;1.87;;;31.20;24.60;;;;;;5045312;28;20492;-82
2022/06/21 12:53:47;;;;;;;5.67;2.03;;;31.70;24.20;;;;;;5047355;28;20563;-83
2022/06/21 12:56:37;;;;;;;3.60;1.50;;;31.40;23.10;;;;;;5011579;28;20536;-85
2022/06/21 12:59:17;;;;;;;1.50;1.40;;;31.00;24.50;;;;;;5043136;28;20469;-85
2022/06/21 13:01:52;;;;;;;4.23;1.60;;;31.70;24.20;;;;;;5044301;28;20454;-85
2022/06/21 13:04:45;;;;;;;2.07;1.60;;;32.00;23.70;;;;;;5046994;28;20449;-85
2022/06/21 13:07:25;;;;;;;2.17;1.33;;;32.40;22.90;;;;;;5044381;28;20450;-87
2022/06/21 13:10:07;;;;;;;2.00;1.60;;;32.10;23.00;;;;;;5041995;28;20834;-83
2022/06/21 13:13:22;;;;;;;1.70;1.60;;;32.00;23.60;;;;;;5044731;28;20451;-84
2022/06/21 13:15:59;;;;;;;2.67;1.63;;;32.10;23.00;;;;;;5040521;28;20622;-83
2022/06/21 13:18:59;;;;;;;3.23;1.70;;;32.30;22.00;;;;;;5043994;28;20507;-86
2022/06/21 13:21:35;;;;;;;2.20;1.60;;;32.40;22.40;;;;;;5042910;28;20991;-84
2022/06/21 13:24:29;;;;;;;2.80;1.70;;;32.70;23.00;;;;;;5045502;28;20899;-85
2022/06/21 13:27:17;;;;;;;1.40;1.27;;;32.60;21.00;;;;;;5061445;28;20453;-85
2022/06/21 13:29:57;;;;;;;1.67;1.53;;;32.40;22.10;;;;;;5058846;28;20758;-85
2022/06/21 13:32:27;;;;;;;4.53;1.53;;;32.20;21.80;;;;;;5045186;28;20448;-85
2022/06/21 13:35:00;;;;;;;2.90;1.50;;;31.80;21.50;;;;;;5046788;28;20991;-85
2022/06/21 13:37:31;;;;;;;4.20;1.40;;;31.90;22.40;;;;;;5030193;28;20459;-83
2022/06/21 13:40:09;;;;;;;2.33;1.50;;;32.40;22.00;;;;;;5028507;28;20696;-85